Time;durP1;ratioP1;P1;durP2;ratioP2;P2;SDS_P1;SDS_P2;PMS_P1;PMS_P2;Temp;Humidity;BMP_temperature;BMP_pressure;BME280_temperature;BME280_humidity;BME280_pressure;Samples;Min_cycle;Max_cycle;Signal;HPM_P1;HPM_P2
2022/06/06 00:00:45;;;;;;;;;;;;;;;18.08;54.25;100562.41;5069286;28;1055;-61
2022/06/06 00:03:11;;;;;;;;;;;;;;;17.72;55.24;100570.09;5071814;28;923;-61
2022/06/06 00:05:36;;;;;;;;;;;;;;;17.94;54.58;100572.44;5070230;28;1114;-61
2022/06/06 00:08:03;;;;;;;;;;;;;;;17.71;55.28;100569.28;5075116;28;1028;-61
2022/06/06 00:10:28;;;;;;;;;;;;;;;17.55;54.15;100559.50;5072790;28;1902;-60
2022/06/06 00:12:54;;;;;;;;;;;;;;;17.73;52.38;100545.06;5066037;28;1020;-60
2022/06/06 00:15:19;;;;;;;;;;;;;;;17.59;52.04;100538.59;5063805;28;1028;-60
2022/06/06 00:17:45;;;;;;;;;;;;;;;17.52;51.77;100538.09;5077685;28;1015;-61
2022/06/06 00:20:10;;;;;;;;;;;;;;;17.62;50.67;100521.50;5078588;28;1054;-61
2022/06/06 00:22:36;;;;;;;;;;;;;;;17.26;51.24;100524.50;5067506;28;1008;-61
2022/06/06 00:25:01;;;;;;;;;;;;;;;17.03;51.51;100515.84;5072279;28;995;-61
2022/06/06 00:27:27;;;;;;;;;;;;;;;17.53;51.81;100514.97;5066688;28;1000;-61
2022/06/06 00:29:53;;;;;;;;;;;;;;;17.85;53.48;100510.88;5072117;28;1020;-60
2022/06/06 00:35:05;;;;;;;;;;;;;;;18.12;57.80;100533.22;5075420;28;1079;-60
2022/06/06 00:37:31;;;;;;;;;;;;;;;18.29;59.02;100509.94;5074797;28;1008;-60
2022/06/06 00:39:57;;;;;;;;;;;;;;;18.43;59.66;100508.13;5077079;28;1105;-61
2022/06/06 00:42:26;;;;;;;;;;;;;;;18.56;60.40;100500.28;5071780;28;1087;-61
2022/06/06 00:45:10;;;;;;;;;;;;;;;18.67;61.04;100496.28;5072530;28;1155;-61
2022/06/06 00:47:36;;;;;;;;;;;;;;;18.75;61.13;100479.09;5071032;28;1397;-61
2022/06/06 00:50:02;;;;;;;;;;;;;;;18.62;59.80;100463.28;5069513;28;1098;-61
2022/06/06 00:52:37;;;;;;;;;;;;;;;18.43;57.04;100457.75;5046121;28;1996;-61
2022/06/06 00:55:16;;;;;;;;;;;;;;;18.16;53.51;100455.56;5052701;28;1190;-62
2022/06/06 00:57:45;;;;;;;;;;;;;;;17.77;50.32;100447.13;5074691;28;1112;-61
2022/06/06 01:00:12;;;;;;;;;;;;;;;17.62;47.50;100437.09;5072647;28;1071;-61
2022/06/06 01:02:37;;;;;;;;;;;;;;;17.36;46.16;100442.00;5070503;28;1013;-61
2022/06/06 01:05:03;;;;;;;;;;;;;;;17.12;45.25;100441.06;5049889;28;1032;-61
2022/06/06 01:07:28;;;;;;;;;;;;;;;16.95;44.46;100447.75;5064755;28;1111;-62
2022/06/06 01:09:53;;;;;;;;;;;;;;;17.10;42.87;100461.41;5075456;28;987;-62
2022/06/06 01:12:19;;;;;;;;;;;;;;;16.70;43.19;100474.22;5074914;28;1996;-62
2022/06/06 01:14:46;;;;;;;;;;;;;;;16.89;42.86;100471.69;5057540;28;1061;-61
2022/06/06 01:17:15;;;;;;;;;;;;;;;17.32;44.50;100475.81;5067574;28;1031;-62
2022/06/06 01:19:46;;;;;;;;;;;;;;;17.56;48.51;100478.69;5049385;28;954;-61
2022/06/06 01:22:21;;;;;;;;;;;;;;;17.95;51.80;100472.31;5072554;28;1031;-61
2022/06/06 01:25:05;;;;;;;;;;;;;;;16.87;57.49;100465.66;5064448;28;1075;-61
2022/06/06 01:27:40;;;;;;;;;;;;;;;16.63;61.16;100465.47;5070581;28;1008;-61
2022/06/06 01:30:07;;;;;;;;;;;;;;;17.82;60.23;100465.50;5050044;28;1032;-61
2022/06/06 01:32:36;;;;;;;;;;;;;;;18.38;59.61;100479.81;5051263;28;1982;-61
2022/06/06 01:35:03;;;;;;;;;;;;;;;18.30;61.07;100482.13;5076279;28;996;-61
2022/06/06 01:37:31;;;;;;;;;;;;;;;18.28;61.47;100486.25;5076017;28;1202;-61
2022/06/06 01:39:58;;;;;;;;;;;;;;;17.38;61.51;100482.94;5065186;28;1108;-61
2022/06/06 01:42:28;;;;;;;;;;;;;;;16.79;60.78;100482.72;5052967;28;1048;-61
2022/06/06 01:45:20;;;;;;;;;;;;;;;16.65;62.60;100493.47;5046419;28;886;-61
2022/06/06 01:47:47;;;;;;;;;;;;;;;17.23;66.22;100514.09;5026724;28;1493;-61
2022/06/06 01:50:13;;;;;;;;;;;;;;;17.42;65.98;100506.81;5071263;28;1019;-59
2022/06/06 01:52:48;;;;;;;;;;;;;;;17.36;66.12;100487.88;5055215;28;1984;-59
2022/06/06 01:55:14;;;;;;;;;;;;;;;17.52;67.03;100499.59;5062537;28;969;-59
2022/06/06 01:57:39;;;;;;;;;;;;;;;17.82;67.24;100500.44;5071050;28;870;-60
2022/06/06 02:00:05;;;;;;;;;;;;;;;17.77;66.80;100487.56;5074380;28;1167;-59
2022/06/06 02:02:31;;;;;;;;;;;;;;;17.75;66.04;100468.63;5047441;28;1105;-60
2022/06/06 02:04:56;;;;;;;;;;;;;;;17.64;66.58;100486.28;5071750;28;1027;-60
2022/06/06 02:07:22;;;;;;;;;;;;;;;18.06;66.63;100493.09;5072768;28;1233;-60
2022/06/06 02:09:47;;;;;;;;;;;;;;;18.20;65.89;100501.50;5073285;28;896;-61
2022/06/06 02:12:12;;;;;;;;;;;;;;;17.96;65.97;100506.94;5070701;28;1914;-60
2022/06/06 02:14:38;;;;;;;;;;;;;;;17.62;65.85;100494.00;5059465;28;1174;-60
2022/06/06 02:17:06;;;;;;;;;;;;;;;17.71;67.42;100514.31;5073880;28;1021;-60
2022/06/06 02:19:31;;;;;;;;;;;;;;;18.23;66.23;100502.81;5067241;28;1016;-61
2022/06/06 02:21:57;;;;;;;;;;;;;;;18.33;66.52;100507.41;5069943;28;1051;-61
2022/06/06 02:24:22;;;;;;;;;;;;;;;18.20;66.45;100526.28;5068531;28;1262;-61
2022/06/06 02:26:48;;;;;;;;;;;;;;;17.69;64.39;100516.50;5073969;28;1071;-61
2022/06/06 02:29:13;;;;;;;;;;;;;;;17.07;62.30;100522.41;5067153;28;1221;-61
2022/06/06 02:31:39;;;;;;;;;;;;;;;17.02;59.18;100505.94;5072097;28;1913;-61
2022/06/06 02:34:05;;;;;;;;;;;;;;;17.40;54.65;100517.28;5074987;28;1170;-62
2022/06/06 02:36:30;;;;;;;;;;;;;;;17.06;52.74;100515.28;5056557;28;949;-62
2022/06/06 02:38:55;;;;;;;;;;;;;;;16.98;51.08;100506.81;5063122;28;955;-62
2022/06/06 02:41:22;;;;;;;;;;;;;;;16.85;52.91;100511.78;5070650;28;1094;-60
2022/06/06 02:43:48;;;;;;;;;;;;;;;16.98;55.39;100513.13;5062847;28;1031;-62
2022/06/06 02:46:13;;;;;;;;;;;;;;;17.32;57.13;100512.38;5065089;28;1122;-61
2022/06/06 02:48:39;;;;;;;;;;;;;;;17.60;58.72;100497.06;5071478;28;953;-60
2022/06/06 02:51:04;;;;;;;;;;;;;;;17.65;60.63;100495.38;5068567;28;1919;-61
2022/06/06 02:53:30;;;;;;;;;;;;;;;18.02;60.73;100485.69;5070067;28;1399;-62
2022/06/06 02:55:56;;;;;;;;;;;;;;;17.87;62.39;100484.72;5068075;28;1048;-61
2022/06/06 02:58:21;;;;;;;;;;;;;;;17.50;64.57;100479.81;5074462;28;1216;-61
2022/06/06 03:00:47;;;;;;;;;;;;;;;17.56;65.21;100473.19;5068472;28;983;-63
2022/06/06 03:03:13;;;;;;;;;;;;;;;17.93;64.43;100464.31;5069568;28;1000;-62
2022/06/06 03:05:49;;;;;;;;;;;;;;;18.29;63.37;100477.72;5069869;28;1185;-61
2022/06/06 03:08:28;;;;;;;;;;;;;;;17.96;64.86;100487.69;5051249;28;1056;-61
2022/06/06 03:11:11;;;;;;;;;;;;;;;17.72;65.97;100474.66;5049457;28;1910;-61
2022/06/06 03:13:43;;;;;;;;;;;;;;;17.84;65.75;100476.22;5060848;28;849;-62
2022/06/06 03:22:08;;;;;;;;;;;;;;;17.85;65.71;100483.38;5064348;28;1063;-60
2022/06/06 03:24:37;;;;;;;;;;;;;;;17.80;65.84;100503.50;5007834;28;1436;-63
2022/06/06 03:27:06;;;;;;;;;;;;;;;17.73;65.99;100523.06;5048869;28;886;-63
2022/06/06 03:29:34;;;;;;;;;;;;;;;17.73;66.14;100522.25;5065928;28;980;-61
2022/06/06 03:32:19;;;;;;;;;;;;;;;17.97;65.49;100527.84;5065741;28;1913;-60
2022/06/06 03:34:44;;;;;;;;;;;;;;;17.95;65.63;100497.06;5066387;28;1130;-62
2022/06/06 03:37:10;;;;;;;;;;;;;;;18.38;64.60;100493.59;5073206;28;1051;-62
2022/06/06 03:39:54;;;;;;;;;;;;;;;18.37;64.26;100512.06;5074961;28;901;-64
2022/06/06 03:42:37;;;;;;;;;;;;;;;17.94;65.50;100522.94;5064572;28;1016;-61
2022/06/06 03:45:08;;;;;;;;;;;;;;;17.63;65.02;100523.16;5068234;28;1150;-62
2022/06/06 03:47:40;;;;;;;;;;;;;;;17.34;65.39;100540.38;5080055;28;1079;-62
2022/06/06 03:50:27;;;;;;;;;;;;;;;17.56;65.39;100539.97;5076783;28;1142;-62
2022/06/06 03:52:52;;;;;;;;;;;;;;;17.95;64.01;100557.59;5070333;28;1044;-61
2022/06/06 03:55:30;;;;;;;;;;;;;;;17.95;63.13;100590.59;5076066;28;1273;-59
2022/06/06 03:57:56;;;;;;;;;;;;;;;17.82;63.01;100629.72;5074741;28;933;-64
2022/06/06 04:00:21;;;;;;;;;;;;;;;17.77;63.14;100661.66;5073640;28;984;-60
2022/06/06 04:02:47;;;;;;;;;;;;;;;17.68;63.47;100652.34;5062988;28;1071;-60
2022/06/06 04:05:14;;;;;;;;;;;;;;;17.94;62.19;100649.47;5078995;28;895;-60
2022/06/06 04:07:39;;;;;;;;;;;;;;;18.07;61.53;100635.06;5076034;28;996;-60
2022/06/06 04:10:05;;;;;;;;;;;;;;;17.73;62.32;100622.06;5075370;28;1106;-59
2022/06/06 04:12:41;;;;;;;;;;;;;;;17.51;62.98;100616.97;5068711;28;1917;-60
2022/06/06 04:15:25;;;;;;;;;;;;;;;18.07;61.33;100637.00;5073857;28;1213;-60
2022/06/06 04:18:09;;;;;;;;;;;;;;;17.85;61.88;100629.97;5068934;28;945;-60
2022/06/06 04:21:00;;;;;;;;;;;;;;;17.42;62.76;100636.00;5077624;28;1043;-60
2022/06/06 04:23:41;;;;;;;;;;;;;;;17.36;63.03;100637.13;5063695;28;1116;-60
2022/06/06 04:26:11;;;;;;;;;;;;;;;17.97;60.95;100648.09;5069597;28;1158;-60
2022/06/06 04:28:38;;;;;;;;;;;;;;;17.54;61.81;100640.34;5072482;28;1927;-60
2022/06/06 04:31:14;;;;;;;;;;;;;;;17.24;62.48;100626.47;5071410;28;1913;-60
2022/06/06 04:33:39;;;;;;;;;;;;;;;17.29;62.43;100603.63;5073970;28;1063;-60
2022/06/06 04:36:37;;;;;;;;;;;;;;;17.67;61.13;100612.22;5073330;28;992;-61
2022/06/06 04:39:09;;;;;;;;;;;;;;;17.21;61.95;100606.97;5023645;28;1163;-60
2022/06/06 04:41:34;;;;;;;;;;;;;;;17.36;61.66;100601.41;5069199;28;1179;-59
2022/06/06 04:44:06;;;;;;;;;;;;;;;17.77;60.26;100594.84;5075780;28;1008;-60
2022/06/06 04:46:31;;;;;;;;;;;;;;;17.65;60.73;100592.41;5074393;28;1396;-62
2022/06/06 04:48:57;;;;;;;;;;;;;;;17.47;61.00;100604.91;5073690;28;984;-62
2022/06/06 04:51:22;;;;;;;;;;;;;;;17.90;59.67;100612.63;5050606;28;1901;-62
2022/06/06 04:53:49;;;;;;;;;;;;;;;17.88;59.90;100612.06;5073430;28;1100;-62
2022/06/06 04:56:15;;;;;;;;;;;;;;;17.70;60.13;100611.66;5053031;28;898;-64
2022/06/06 04:58:41;;;;;;;;;;;;;;;17.90;59.59;100605.16;5071064;28;1004;-61
2022/06/06 05:01:07;;;;;;;;;;;;;;;18.34;58.48;100597.97;5053432;28;957;-63
2022/06/06 05:03:33;;;;;;;;;;;;;;;18.05;59.56;100590.50;5078210;28;945;-64
2022/06/06 05:06:01;;;;;;;;;;;;;;;17.73;60.49;100586.31;5070745;28;968;-64
2022/06/06 05:08:33;;;;;;;;;;;;;;;17.71;60.68;100568.47;5072672;28;851;-63
2022/06/06 05:11:17;;;;;;;;;;;;;;;18.16;59.25;100565.66;5060741;28;1987;-64
2022/06/06 05:13:43;;;;;;;;;;;;;;;18.12;59.92;100557.16;5066791;28;1059;-63
2022/06/06 05:16:23;;;;;;;;;;;;;;;17.72;60.95;100576.41;5070587;28;1095;-63
2022/06/06 05:19:02;;;;;;;;;;;;;;;17.58;61.70;100586.44;5071684;28;1004;-62
2022/06/06 05:21:36;;;;;;;;;;;;;;;17.45;62.01;100588.69;5050505;28;1083;-64
2022/06/06 05:24:02;;;;;;;;;;;;;;;17.87;60.66;100594.75;5070798;28;1352;-64
2022/06/06 05:26:46;;;;;;;;;;;;;;;17.89;60.15;100597.22;5063421;28;1099;-63
2022/06/06 05:29:11;;;;;;;;;;;;;;;17.73;60.80;100605.56;5067966;28;1056;-65
2022/06/06 05:31:42;;;;;;;;;;;;;;;17.73;60.58;100613.81;5067618;28;1988;-65
2022/06/06 05:34:08;;;;;;;;;;;;;;;17.78;60.62;100608.28;5074579;28;906;-64
2022/06/06 05:36:52;;;;;;;;;;;;;;;18.09;59.48;100615.50;5065893;28;1162;-63
2022/06/06 05:39:17;;;;;;;;;;;;;;;18.06;59.38;100619.69;5076469;28;1071;-65
2022/06/06 05:41:48;;;;;;;;;;;;;;;17.79;60.32;100623.69;5071109;28;1318;-64
2022/06/06 05:44:17;;;;;;;;;;;;;;;17.75;60.29;100624.53;5052390;28;969;-63
2022/06/06 05:47:03;;;;;;;;;;;;;;;18.20;59.27;100624.50;5063379;28;1094;-61
2022/06/06 05:49:32;;;;;;;;;;;;;;;18.03;59.64;100636.72;5064356;28;976;-62
2022/06/06 05:52:15;;;;;;;;;;;;;;;17.84;60.27;100638.50;5067392;28;1946;-61
2022/06/06 05:54:41;;;;;;;;;;;;;;;17.54;62.03;100659.56;5076802;28;1210;-62
2022/06/06 05:57:12;;;;;;;;;;;;;;;17.51;61.84;100679.41;5066357;28;1322;-63
2022/06/06 05:59:47;;;;;;;;;;;;;;;17.91;60.41;100691.31;5062101;28;933;-62
2022/06/06 06:02:15;;;;;;;;;;;;;;;17.93;60.22;100697.34;5064879;28;1209;-63
2022/06/06 06:04:44;;;;;;;;;;;;;;;17.57;61.15;100701.09;5067668;28;997;-63
2022/06/06 06:07:16;;;;;;;;;;;;;;;17.45;61.52;100709.66;5050049;28;985;-63
2022/06/06 06:10:00;;;;;;;;;;;;;;;17.62;60.93;100709.28;5051924;28;961;-63
2022/06/06 06:12:26;;;;;;;;;;;;;;;17.90;60.03;100708.88;5062338;28;2000;-63
2022/06/06 06:15:17;;;;;;;;;;;;;;;18.06;59.75;100695.88;5068716;28;1227;-63
2022/06/06 06:17:42;;;;;;;;;;;;;;;18.06;59.65;100680.22;5063342;28;977;-63
2022/06/06 06:20:12;;;;;;;;;;;;;;;17.70;60.84;100674.91;5065605;28;1075;-62
2022/06/06 06:22:38;;;;;;;;;;;;;;;17.48;60.62;100679.97;5075143;28;1147;-62
2022/06/06 06:25:04;;;;;;;;;;;;;;;17.78;58.50;100696.31;5066370;28;930;-62
2022/06/06 06:27:31;;;;;;;;;;;;;;;17.73;57.53;100699.06;5065912;28;1039;-62
2022/06/06 06:29:57;;;;;;;;;;;;;;;17.33;57.79;100700.88;5069955;28;1107;-62
2022/06/06 06:32:30;;;;;;;;;;;;;;;17.08;57.37;100694.41;5068798;28;1982;-62
2022/06/06 06:34:55;;;;;;;;;;;;;;;17.16;56.86;100686.69;5070833;28;1197;-63
2022/06/06 06:37:25;;;;;;;;;;;;;;;17.43;55.37;100675.28;5066399;28;870;-62
2022/06/06 06:40:06;;;;;;;;;;;;;;;17.61;55.42;100662.84;5049591;28;1090;-63
2022/06/06 06:42:41;;;;;;;;;;;;;;;19.17;52.54;100671.47;5065671;28;1059;-60
2022/06/06 06:45:18;;;;;;;;;;;;;;;19.15;53.64;100661.59;5067626;28;1142;-63
2022/06/06 06:47:45;;;;;;;;;;;;;;;18.49;55.42;100654.00;5053897;28;1079;-62
2022/06/06 06:50:12;;;;;;;;;;;;;;;17.93;53.94;100667.09;5066853;28;1224;-63
2022/06/06 06:52:38;;;;;;;;;;;;;;;17.48;52.52;100653.28;5056059;28;1983;-64
2022/06/06 06:55:22;;;;;;;;;;;;;;;17.20;51.39;100666.59;5074638;28;1201;-63
2022/06/06 06:57:51;;;;;;;;;;;;;;;16.85;50.42;100660.06;5065022;28;1024;-63
2022/06/06 07:00:20;;;;;;;;;;;;;;;16.55;50.67;100663.69;5067130;28;1040;-62
2022/06/06 07:08:44;;;;;;;;;;;;;;;16.47;52.91;100665.06;5054448;28;1146;-63
2022/06/06 07:11:28;;;;;;;;;;;;;;;16.31;50.85;100675.22;5062741;28;1910;-68
2022/06/06 07:13:54;;;;;;;;;;;;;;;16.16;49.39;100672.47;5068952;28;1024;-65
2022/06/06 07:16:23;;;;;;;;;;;;;;;15.78;48.92;100674.56;5068197;28;1145;-66
2022/06/06 07:18:58;;;;;;;;;;;;;;;15.66;48.57;100675.66;5073042;28;1107;-63
2022/06/06 07:21:24;;;;;;;;;;;;;;;15.44;48.16;100664.88;5068270;28;1024;-64
2022/06/06 07:23:49;;;;;;;;;;;;;;;15.40;47.74;100678.31;5045926;28;1162;-66
2022/06/06 07:26:14;;;;;;;;;;;;;;;15.32;48.76;100675.25;5075468;28;1048;-66
2022/06/06 07:28:40;;;;;;;;;;;;;;;15.37;49.51;100687.03;5073138;28;909;-64
2022/06/06 07:31:14;;;;;;;;;;;;;;;15.56;51.23;100692.88;5057168;28;1902;-63
2022/06/06 07:33:58;;;;;;;;;;;;;;;15.77;53.38;100695.69;5074477;28;1013;-61
2022/06/06 07:36:36;;;;;;;;;;;;;;;16.26;55.04;100705.41;5067168;28;1068;-65
2022/06/06 07:39:05;;;;;;;;;;;;;;;16.13;54.55;100686.75;5065821;28;1090;-62
2022/06/06 07:41:36;;;;;;;;;;;;;;;16.15;54.96;100701.03;5068905;28;855;-65
2022/06/06 07:44:20;;;;;;;;;;;;;;;16.52;55.53;100702.66;5063863;28;1392;-63
2022/06/06 07:46:58;;;;;;;;;;;;;;;16.45;55.05;100707.63;5067482;28;1012;-63
2022/06/06 07:49:30;;;;;;;;;;;;;;;16.35;54.41;100708.44;5065569;28;996;-63
2022/06/06 07:52:03;;;;;;;;;;;;;;;16.29;54.10;100715.84;5052148;28;2014;-64
2022/06/06 07:54:47;;;;;;;;;;;;;;;16.24;53.79;100713.94;5048994;28;888;-63
2022/06/06 07:57:32;;;;;;;;;;;;;;;16.22;54.39;100727.06;5062478;28;973;-60
2022/06/06 08:00:00;;;;;;;;;;;;;;;16.52;55.15;100733.72;5065892;28;1044;-64
2022/06/06 08:02:32;;;;;;;;;;;;;;;16.51;54.78;100728.47;5064154;28;895;-63
2022/06/06 08:05:06;;;;;;;;;;;;;;;16.43;54.65;100733.41;5066550;28;1126;-64
2022/06/06 08:07:50;;;;;;;;;;;;;;;16.38;54.03;100736.16;5066292;28;957;-63
2022/06/06 08:10:21;;;;;;;;;;;;;;;16.64;54.27;100727.94;5067615;28;1167;-63
2022/06/06 08:12:50;;;;;;;;;;;;;;;16.58;54.41;100740.03;5069176;28;1980;-61
2022/06/06 08:15:34;;;;;;;;;;;;;;;16.45;54.08;100726.81;5043557;28;1151;-61
2022/06/06 08:18:12;;;;;;;;;;;;;;;16.58;53.90;100729.03;5062828;28;1015;-63
2022/06/06 08:20:37;;;;;;;;;;;;;;;16.47;53.70;100741.94;5068863;28;1020;-63
2022/06/06 08:23:03;;;;;;;;;;;;;;;16.33;53.54;100733.41;5071103;28;973;-63
2022/06/06 08:25:29;;;;;;;;;;;;;;;16.29;53.71;100740.53;5051762;28;1311;-63
2022/06/06 08:27:56;;;;;;;;;;;;;;;16.26;53.54;100743.84;5072236;28;988;-63
2022/06/06 08:30:22;;;;;;;;;;;;;;;16.30;53.02;100744.94;5075520;28;1159;-60
2022/06/06 08:32:47;;;;;;;;;;;;;;;16.30;53.08;100728.47;5071954;28;1910;-62
2022/06/06 08:35:13;;;;;;;;;;;;;;;16.29;52.85;100732.31;5069114;28;1055;-64
2022/06/06 08:37:50;;;;;;;;;;;;;;;16.27;53.05;100719.94;5075647;28;1091;-60
2022/06/06 08:40:31;;;;;;;;;;;;;;;16.20;53.85;100736.66;5054326;28;1048;-64
2022/06/06 08:42:58;;;;;;;;;;;;;;;16.28;53.26;100725.16;5066839;28;980;-64
2022/06/06 08:45:33;;;;;;;;;;;;;;;16.30;53.05;100733.97;5043876;28;1081;-65
2022/06/06 08:48:10;;;;;;;;;;;;;;;16.21;54.38;100710.88;5065680;28;1131;-58
2022/06/06 08:50:54;;;;;;;;;;;;;;;16.64;55.05;100732.59;5071453;28;996;-58
2022/06/06 08:53:44;;;;;;;;;;;;;;;16.87;55.44;100718.31;5065576;28;1028;-58
2022/06/06 08:56:20;;;;;;;;;;;;;;;16.95;55.72;100727.94;5059615;28;1092;-58
2022/06/06 08:58:51;;;;;;;;;;;;;;;16.90;56.50;100719.69;5048201;28;1291;-58
2022/06/06 09:01:17;;;;;;;;;;;;;;;16.42;60.20;100722.72;5070810;28;1150;-59
2022/06/06 09:04:00;;;;;;;;;;;;;;;17.06;66.72;100713.06;5061735;28;1209;-59
2022/06/06 09:06:44;;;;;;;;;;;;;;;17.77;68.38;100722.16;5068045;28;1233;-58
2022/06/06 09:09:19;;;;;;;;;;;;;;;17.51;66.81;100712.38;5070366;28;1001;-60
2022/06/06 09:12:03;;;;;;;;;;;;;;;17.04;63.28;100712.53;5071837;28;1906;-61
2022/06/06 09:14:42;;;;;;;;;;;;;;;16.23;62.38;100708.72;5054549;28;1138;-60
2022/06/06 09:17:20;;;;;;;;;;;;;;;16.42;60.94;100726.28;5046807;28;1215;-60
2022/06/06 09:20:03;;;;;;;;;;;;;;;16.68;58.52;100712.56;5069507;28;1083;-62
2022/06/06 09:22:38;;;;;;;;;;;;;;;17.05;55.71;100721.59;5066980;28;1179;-60
2022/06/06 09:25:04;;;;;;;;;;;;;;;17.30;53.57;100722.63;5060525;28;1060;-61
2022/06/06 09:27:47;;;;;;;;;;;;;;;17.49;53.19;100722.81;5072346;28;988;-60
2022/06/06 09:30:19;;;;;;;;;;;;;;;17.23;56.29;100728.41;5059540;28;1016;-60
2022/06/06 09:32:47;;;;;;;;;;;;;;;16.85;61.12;100728.72;5067960;28;1914;-60
2022/06/06 09:35:19;;;;;;;;;;;;;;;17.95;60.14;100725.41;5063822;28;851;-62
2022/06/06 09:38:03;;;;;;;;;;;;;;;18.38;60.47;100717.38;5068725;28;1017;-64
2022/06/06 09:40:32;;;;;;;;;;;;;;;18.40;61.79;100717.94;5064555;28;993;-65
2022/06/06 09:43:03;;;;;;;;;;;;;;;17.94;63.18;100710.00;5075748;28;1162;-65
2022/06/06 09:45:48;;;;;;;;;;;;;;;17.43;64.39;100711.88;5056808;28;1048;-65
2022/06/06 09:48:29;;;;;;;;;;;;;;;17.26;65.81;100700.38;5064602;28;965;-65
2022/06/06 09:51:07;;;;;;;;;;;;;;;17.77;68.44;100689.16;5070203;28;1974;-65
2022/06/06 09:53:32;;;;;;;;;;;;;;;18.01;67.37;100698.69;5067998;28;1000;-65
2022/06/06 09:59:03;;;;;;;;;;;;;;;17.35;66.11;100681.38;5070490;28;1118;-66
2022/06/06 10:01:47;;;;;;;;;;;;;;;17.53;68.76;100671.66;5068936;28;850;-65
2022/06/06 10:04:22;;;;;;;;;;;;;;;18.03;69.28;100680.75;5064113;28;1032;-63
2022/06/06 10:06:50;;;;;;;;;;;;;;;18.08;69.01;100677.16;5076056;28;1134;-64
2022/06/06 10:09:36;;;;;;;;;;;;;;;17.94;68.70;100688.00;5065672;28;987;-64
2022/06/06 10:12:20;;;;;;;;;;;;;;;17.93;67.44;100680.84;5069229;28;1918;-66
2022/06/06 10:14:58;;;;;;;;;;;;;;;17.74;67.34;100688.88;5063888;28;1070;-64
2022/06/06 10:17:42;;;;;;;;;;;;;;;17.96;68.75;100683.00;5066761;28;1017;-64
2022/06/06 10:20:07;;;;;;;;;;;;;;;18.08;69.13;100688.19;5074081;28;1134;-63
2022/06/06 10:22:36;;;;;;;;;;;;;;;18.20;69.26;100693.31;5072366;28;1205;-64
2022/06/06 10:25:11;;;;;;;;;;;;;;;18.13;68.61;100696.38;5072363;28;1382;-64
2022/06/06 10:28:03;;;;;;;;;;;;;;;17.93;67.15;100686.34;5055375;28;1193;-64
2022/06/06 10:30:33;;;;;;;;;;;;;;;17.64;65.45;100687.00;5062415;28;1428;-64
2022/06/06 10:33:02;;;;;;;;;;;;;;;17.97;67.91;100681.09;5075870;28;1910;-63
2022/06/06 10:35:46;;;;;;;;;;;;;;;18.07;68.26;100673.56;5071593;28;972;-67
2022/06/06 10:38:18;;;;;;;;;;;;;;;18.04;68.63;100679.66;5061848;28;1139;-64
2022/06/06 10:40:57;;;;;;;;;;;;;;;18.07;67.79;100670.81;5074670;28;1075;-66
2022/06/06 10:43:22;;;;;;;;;;;;;;;18.03;65.63;100675.25;5048398;28;1159;-64
2022/06/06 10:45:49;;;;;;;;;;;;;;;17.59;64.52;100659.56;5061910;28;1210;-65
2022/06/06 10:48:20;;;;;;;;;;;;;;;17.36;64.02;100663.78;5050246;28;1072;-65
2022/06/06 10:54:07;;;;;;;;;;;;;;;17.97;60.17;100662.66;5070091;28;1072;-65
2022/06/06 10:56:33;;;;;;;;;;;;;;;17.52;60.82;100661.81;5068118;28;1087;-64
2022/06/06 10:59:04;;;;;;;;;;;;;;;17.55;59.90;100661.22;5057754;28;1040;-62
2022/06/06 11:01:30;;;;;;;;;;;;;;;17.92;58.45;100665.44;5067956;28;903;-65
2022/06/06 11:03:55;;;;;;;;;;;;;;;17.61;58.64;100662.84;5069606;28;944;-66
2022/06/06 11:06:22;;;;;;;;;;;;;;;17.55;58.68;100675.78;5069760;28;956;-65
2022/06/06 11:08:47;;;;;;;;;;;;;;;17.75;57.32;100663.03;5073292;28;1064;-65
2022/06/06 11:11:31;;;;;;;;;;;;;;;17.35;58.47;100664.88;5067201;28;1987;-64
2022/06/06 11:14:00;;;;;;;;;;;;;;;17.32;58.20;100682.78;5066151;28;1154;-65
2022/06/06 11:16:25;;;;;;;;;;;;;;;17.24;58.02;100686.09;5049428;28;1223;-65
2022/06/06 11:19:03;;;;;;;;;;;;;;;17.16;58.20;100678.44;5071830;28;1173;-66
2022/06/06 11:21:31;;;;;;;;;;;;;;;17.35;58.53;100692.38;5075229;28;965;-65
2022/06/06 11:24:00;;;;;;;;;;;;;;;17.36;58.71;100696.75;5063056;28;1004;-67
2022/06/06 11:26:35;;;;;;;;;;;;;;;17.50;58.85;100688.75;5050256;28;1039;-66
2022/06/06 11:29:10;;;;;;;;;;;;;;;17.54;58.74;100689.81;5062967;28;1071;-66
2022/06/06 11:31:45;;;;;;;;;;;;;;;17.53;58.74;100691.75;5057723;28;1906;-66
2022/06/06 11:34:25;;;;;;;;;;;;;;;17.44;59.24;100697.00;5070456;28;1151;-65
2022/06/06 11:36:54;;;;;;;;;;;;;;;17.61;58.48;100696.69;5061971;28;948;-66
2022/06/06 11:39:23;;;;;;;;;;;;;;;17.24;59.71;100686.09;5069328;28;1023;-66
2022/06/06 11:42:07;;;;;;;;;;;;;;;17.30;59.74;100690.47;5069384;28;1067;-65
2022/06/06 11:44:51;;;;;;;;;;;;;;;17.74;58.48;100677.88;5069530;28;1190;-66
2022/06/06 11:47:26;;;;;;;;;;;;;;;17.65;58.79;100674.09;5070351;28;838;-63
2022/06/06 11:50:07;;;;;;;;;;;;;;;17.52;59.03;100662.63;5062356;28;1056;-65
2022/06/06 11:52:39;;;;;;;;;;;;;;;17.72;58.46;100663.59;5062558;28;1972;-64
2022/06/06 11:55:24;;;;;;;;;;;;;;;17.56;59.08;100668.38;5069158;28;811;-66
2022/06/06 11:57:52;;;;;;;;;;;;;;;17.70;58.86;100660.34;5065719;28;956;-65
2022/06/06 12:00:19;;;;;;;;;;;;;;;17.65;58.80;100655.66;5068630;28;1055;-66
2022/06/06 12:02:47;;;;;;;;;;;;;;;17.58;59.09;100668.91;5075659;28;1199;-63
2022/06/06 12:05:31;;;;;;;;;;;;;;;17.48;59.31;100678.03;5053829;28;1344;-64
2022/06/06 12:08:00;;;;;;;;;;;;;;;17.67;59.02;100672.72;5064812;28;1020;-65
2022/06/06 12:10:26;;;;;;;;;;;;;;;17.50;59.42;100678.59;5073092;28;985;-65
2022/06/06 12:12:59;;;;;;;;;;;;;;;17.27;59.85;100674.53;5070262;28;1963;-65
2022/06/06 12:15:29;;;;;;;;;;;;;;;17.60;58.72;100670.28;5046148;28;1072;-65
2022/06/06 12:18:13;;;;;;;;;;;;;;;17.70;58.47;100672.16;5053326;28;1115;-66
2022/06/06 12:20:52;;;;;;;;;;;;;;;17.66;58.57;100670.25;5066924;28;854;-62
2022/06/06 12:23:36;;;;;;;;;;;;;;;17.77;58.30;100693.84;5063089;28;1107;-65
2022/06/06 12:26:12;;;;;;;;;;;;;;;17.84;58.36;100697.09;5059713;28;941;-64
2022/06/06 12:29:10;;;;;;;;;;;;;;;17.73;58.51;100693.56;5054688;28;996;-64
2022/06/06 12:31:41;;;;;;;;;;;;;;;17.82;58.32;100690.22;5027104;28;1917;-62
2022/06/06 12:34:18;;;;;;;;;;;;;;;17.72;58.66;100674.59;5052483;28;862;-62
2022/06/06 12:37:13;;;;;;;;;;;;;;;17.88;58.29;100676.16;5068407;28;1011;-63
2022/06/06 12:40:00;;;;;;;;;;;;;;;17.83;58.55;100664.38;5058573;28;1429;-62
2022/06/06 12:42:44;;;;;;;;;;;;;;;17.57;59.21;100661.75;5065253;28;1001;-63
2022/06/06 12:45:14;;;;;;;;;;;;;;;17.73;59.22;100665.25;5066112;28;1162;-63
2022/06/06 12:47:49;;;;;;;;;;;;;;;17.82;58.58;100668.22;5049583;28;1076;-64
2022/06/06 12:50:29;;;;;;;;;;;;;;;17.82;58.93;100669.03;5071178;28;1051;-64
2022/06/06 12:53:02;;;;;;;;;;;;;;;17.84;58.53;100671.50;5071474;28;1988;-64
2022/06/06 12:58:39;;;;;;;;;;;;;;;18.01;58.51;100669.22;5072532;28;1071;-63
2022/06/06 13:03:56;;;;;;;;;;;;;;;17.75;58.62;100672.13;5054207;28;1214;-64
2022/06/06 13:06:32;;;;;;;;;;;;;;;17.65;59.30;100663.91;5067092;28;972;-63
2022/06/06 13:09:11;;;;;;;;;;;;;;;17.93;58.42;100675.34;5040649;28;1227;-64
2022/06/06 13:11:45;;;;;;;;;;;;;;;17.61;59.30;100671.09;5062643;28;1981;-63
2022/06/06 13:14:11;;;;;;;;;;;;;;;17.30;59.73;100690.47;5068376;28;1079;-63
2022/06/06 13:16:39;;;;;;;;;;;;;;;17.57;59.16;100675.50;5072139;28;957;-65
2022/06/06 13:19:23;;;;;;;;;;;;;;;17.38;59.63;100681.66;5071041;28;1008;-64
2022/06/06 13:22:01;;;;;;;;;;;;;;;17.39;59.39;100683.28;5058965;28;964;-64
2022/06/06 13:24:35;;;;;;;;;;;;;;;17.43;59.08;100678.88;5066254;28;1166;-64
2022/06/06 13:27:34;;;;;;;;;;;;;;;17.37;59.18;100685.50;5076274;28;956;-64
2022/06/06 13:30:18;;;;;;;;;;;;;;;17.49;59.09;100670.59;5032290;28;1165;-64
2022/06/06 13:32:49;;;;;;;;;;;;;;;17.62;58.73;100670.81;5071422;28;1986;-64
2022/06/06 13:35:16;;;;;;;;;;;;;;;17.45;58.83;100686.84;5064436;28;996;-65
2022/06/06 13:37:42;;;;;;;;;;;;;;;17.26;59.63;100673.72;5070817;28;917;-64
2022/06/06 13:40:12;;;;;;;;;;;;;;;17.48;58.80;100679.97;5050741;28;1139;-64
2022/06/06 13:43:13;;;;;;;;;;;;;;;17.47;58.80;100667.31;5066354;28;981;-64